createdAt,value
2022-08-11T00:00:59.204Z,100228.16
2022-08-11T00:03:43.822Z,100244.19
2022-08-11T00:06:16.130Z,100246.31
2022-08-11T00:08:44.706Z,100241.63
2022-08-11T00:11:13.187Z,100217.59
2022-08-11T00:13:46.587Z,100236.47
2022-08-11T00:16:25.835Z,100236.00
2022-08-11T00:18:55.588Z,100241.97
2022-08-11T00:22:02.982Z,100241.28
2022-08-11T00:24:10.963Z,100247.72
2022-08-11T00:26:37.866Z,100233.47
2022-08-11T00:29:14.712Z,100240.28
2022-08-11T00:32:03.309Z,100256.66
2022-08-11T00:34:36.078Z,100265.81
2022-08-11T00:37:19.710Z,100259.91
2022-08-11T00:39:51.174Z,100263.09
2022-08-11T00:42:43.501Z,100262.75
2022-08-11T00:45:27.461Z,100249.16
2022-08-11T00:48:05.957Z,100259.56
2022-08-11T00:51:26.813Z,100266.91
2022-08-11T00:54:16.205Z,100265.63
2022-08-11T00:57:37.713Z,100263.59
2022-08-11T01:00:05.225Z,100251.97
2022-08-11T01:02:47.596Z,100251.28
2022-08-11T01:05:22.328Z,100213.22
2022-08-11T01:08:17.557Z,100261.53
2022-08-11T01:11:25.657Z,100263.66
2022-08-11T01:14:05.403Z,100259.91
2022-08-11T01:16:32.043Z,100259.06
2022-08-11T01:20:45.790Z,100253.44
2022-08-11T01:22:44.896Z,100252.28
2022-08-11T01:25:33.149Z,100265.69
2022-08-11T01:28:32.813Z,100270.75
2022-08-11T01:31:30.647Z,100273.38
2022-08-11T01:34:20.947Z,100250.28
2022-08-11T01:37:12.563Z,100265.25
2022-08-11T01:40:06.390Z,100276.00
2022-08-11T01:43:27.589Z,100279.50
2022-08-11T01:46:02.698Z,100274.22
2022-08-11T01:48:43.378Z,100269.81
2022-08-11T01:51:34.711Z,100280.81
2022-08-11T01:54:21.687Z,100266.75
2022-08-11T01:57:10.345Z,100282.06
2022-08-11T01:59:49.890Z,100263.28
2022-08-11T02:02:44.632Z,100278.03
2022-08-11T02:05:34.641Z,100273.94
2022-08-11T02:08:44.812Z,100276.84
2022-08-11T02:11:30.386Z,100285.00
2022-08-11T02:14:39.989Z,100272.16
2022-08-11T02:17:19.102Z,100273.19
2022-08-11T02:20:14.342Z,100281.88
2022-08-11T02:23:14.145Z,100276.53
2022-08-11T02:26:24.433Z,100274.59
2022-08-11T02:28:54.739Z,100271.66
2022-08-11T02:32:15.416Z,100256.81
2022-08-11T02:35:00.854Z,100249.81
2022-08-11T02:37:32.932Z,100267.97
2022-08-11T02:39:59.634Z,100270.13
2022-08-11T02:42:35.917Z,100256.53
2022-08-11T02:45:11.936Z,100261.88
2022-08-11T02:48:21.931Z,100262.94
2022-08-11T02:51:10.328Z,100260.09
2022-08-11T02:54:01.942Z,100263.97
2022-08-11T02:56:45.129Z,100264.25
2022-08-11T02:59:39.095Z,100260.44
2022-08-11T03:02:41.277Z,100258.91
2022-08-11T03:05:11.910Z,100262.31
2022-08-11T03:08:02.967Z,100257.84
2022-08-11T03:11:15.965Z,100261.41
2022-08-11T03:14:10.717Z,100239.94
2022-08-11T03:16:55.590Z,100256.03
2022-08-11T03:19:35.737Z,100224.31
2022-08-11T03:22:06.755Z,100257.59
2022-08-11T03:24:33.954Z,100256.38
2022-08-11T03:27:31.344Z,100259.22
2022-08-11T03:30:15.583Z,100227.59
2022-08-11T03:33:25.439Z,100247.59
2022-08-11T03:36:07.798Z,100240.84
2022-08-11T03:39:13.907Z,100199.81
2022-08-11T03:42:03.145Z,100272.53
2022-08-11T03:44:50.098Z,100271.50
2022-08-11T03:47:55.607Z,100256.91
2022-08-11T03:50:55.224Z,100273.13
2022-08-11T03:53:49.928Z,100273.19
2022-08-11T03:56:18.116Z,100279.78
2022-08-11T03:59:22.479Z,100287.59
2022-08-11T04:02:12.028Z,100253.66
2022-08-11T04:04:51.403Z,100278.53
2022-08-11T04:07:49.383Z,100285.94
2022-08-11T04:10:44.928Z,100270.53
2022-08-11T04:13:39.149Z,100284.53
2022-08-11T04:16:41.107Z,100232.19
2022-08-11T04:19:45.145Z,100284.34
2022-08-11T04:22:20.988Z,100278.69
2022-08-11T04:25:17.058Z,100284.25
2022-08-11T04:27:58.850Z,100276.63
2022-08-11T04:30:46.879Z,100266.53
2022-08-11T04:33:59.633Z,100209.25
2022-08-11T04:37:31.412Z,100237.25
2022-08-11T04:40:27.215Z,100273.59
2022-08-11T04:43:21.136Z,100285.53
2022-08-11T04:46:14.003Z,100281.63
2022-08-11T04:49:08.760Z,100284.31
2022-08-11T04:52:36.096Z,100285.34
2022-08-11T04:55:49.822Z,100283.50
2022-08-11T04:59:00.091Z,100250.25
2022-08-11T05:01:55.654Z,100288.25
2022-08-11T05:04:59.638Z,100285.81
2022-08-11T05:08:03.472Z,100240.78
2022-08-11T05:10:43.085Z,100283.72
2022-08-11T05:13:30.504Z,100252.41
2022-08-11T05:16:28.512Z,100287.91
2022-08-11T05:19:16.228Z,100238.31
2022-08-11T05:22:11.404Z,100299.94
2022-08-11T05:26:46.055Z,100238.94
2022-08-11T05:28:34.674Z,100288.59
2022-08-11T05:31:28.618Z,100303.84
2022-08-11T05:34:21.734Z,100265.09
2022-08-11T05:37:17.234Z,100281.97
2022-08-11T05:40:07.029Z,100304.50
2022-08-11T05:43:03.220Z,100308.75
2022-08-11T05:46:03.073Z,100273.59
2022-08-11T05:49:09.072Z,100274.19
2022-08-11T05:52:05.485Z,100149.91
2022-08-11T05:55:06.304Z,100271.22
2022-08-11T05:57:48.476Z,100259.59
2022-08-11T06:00:24.198Z,100265.66
2022-08-11T06:02:59.215Z,100248.31
2022-08-11T06:05:38.219Z,100228.03
2022-08-11T06:08:12.228Z,100273.25
2022-08-11T06:10:42.382Z,100303.59
2022-08-11T06:13:10.573Z,100278.34
2022-08-11T06:15:48.761Z,100299.38
2022-08-11T06:18:16.657Z,100274.88
2022-08-11T06:20:58.068Z,100248.13
2022-08-11T06:23:32.644Z,100292.97
2022-08-11T06:26:09.090Z,100308.13
2022-08-11T06:28:44.949Z,100298.63
2022-08-11T06:31:18.503Z,100291.66
2022-08-11T06:33:51.074Z,100295.88
2022-08-11T06:36:34.315Z,100289.41
2022-08-11T06:39:21.398Z,100298.56
2022-08-11T06:42:01.105Z,100306.94
2022-08-11T06:44:43.328Z,100308.69
2022-08-11T06:47:13.132Z,100308.47
2022-08-11T06:50:06.364Z,100294.72
2022-08-11T06:52:40.389Z,100297.06
2022-08-11T06:55:56.642Z,100220.50
2022-08-11T06:58:48.856Z,100234.88
2022-08-11T07:01:46.392Z,100270.78
2022-08-11T07:04:30.344Z,100288.41
2022-08-11T07:07:33.538Z,100289.09
2022-08-11T07:11:22.802Z,100275.41
2022-08-11T07:14:12.869Z,100267.09
2022-08-11T07:16:44.406Z,100267.69
2022-08-11T07:19:32.771Z,100243.50
2022-08-11T07:22:23.251Z,100252.50
2022-08-11T07:25:18.777Z,100245.78
2022-08-11T07:28:09.008Z,100280.13
2022-08-11T07:30:41.597Z,100243.19
2022-08-11T07:33:10.427Z,100261.13
2022-08-11T07:35:55.535Z,100276.66
2022-08-11T07:38:43.137Z,100197.91
2022-08-11T07:41:18.312Z,100263.31
2022-08-11T07:43:50.396Z,100255.44
2022-08-11T07:46:37.053Z,100282.63
2022-08-11T07:49:28.833Z,100248.13
2022-08-11T07:52:21.184Z,100269.50
2022-08-11T07:55:13.392Z,100241.53
2022-08-11T07:58:15.932Z,100279.97
2022-08-11T08:01:10.141Z,100259.78
2022-08-11T08:03:58.670Z,100235.25
2022-08-11T08:06:48.115Z,100260.31
2022-08-11T08:09:36.805Z,100240.78
2022-08-11T08:12:23.559Z,100267.66
2022-08-11T08:15:13.766Z,100256.06
2022-08-11T08:18:08.379Z,100264.19
2022-08-11T08:20:51.913Z,100274.56
2022-08-11T08:23:33.570Z,100276.84
2022-08-11T08:26:30.129Z,100253.03
2022-08-11T08:29:20.648Z,100238.75
2022-08-11T08:31:49.281Z,100257.19
2022-08-11T08:34:16.760Z,100240.31
2022-08-11T08:36:48.183Z,100268.13
2022-08-11T08:39:16.709Z,100240.81
2022-08-11T08:41:44.807Z,100245.25
2022-08-11T08:44:37.332Z,100259.69
2022-08-11T08:47:05.259Z,100259.63
2022-08-11T08:49:40.199Z,100251.06
2022-08-11T08:52:25.435Z,100235.78
2022-08-11T08:54:59.721Z,100253.94
2022-08-11T08:57:29.267Z,100227.28
2022-08-11T08:59:57.926Z,100247.41
2022-08-11T09:02:34.495Z,100259.34
2022-08-11T09:05:04.506Z,100203.06
2022-08-11T09:07:39.742Z,100239.88
2022-08-11T09:10:09.743Z,100217.16
2022-08-11T09:12:42.631Z,100261.91
2022-08-11T09:15:11.698Z,100211.72
2022-08-11T09:17:45.148Z,100247.59
2022-08-11T09:20:26.113Z,100189.06
2022-08-11T09:26:22.214Z,100250.31
2022-08-11T09:29:01.841Z,100253.03
2022-08-11T09:31:40.010Z,100188.44
2022-08-11T09:34:10.933Z,100232.88
2022-08-11T09:37:01.958Z,100221.84
2022-08-11T09:39:49.632Z,100203.09
2022-08-11T09:42:23.481Z,100228.00
2022-08-11T09:44:54.370Z,100201.63
2022-08-11T09:47:27.873Z,100188.88
2022-08-11T09:50:02.004Z,100234.81
2022-08-11T09:52:35.715Z,100209.06
2022-08-11T09:55:08.567Z,100195.38
2022-08-11T09:57:55.163Z,100222.91
2022-08-11T10:00:32.172Z,100225.16
2022-08-11T10:03:02.515Z,100199.63
2022-08-11T10:05:50.549Z,100206.72
2022-08-11T10:08:19.719Z,100204.59
2022-08-11T10:11:08.996Z,100193.81
2022-08-11T10:14:31.916Z,100164.19
2022-08-11T10:16:49.403Z,100174.19
2022-08-11T10:19:22.115Z,100173.19
2022-08-11T10:22:12.195Z,100155.53
2022-08-11T10:25:00.211Z,100145.09
2022-08-11T10:28:16.714Z,100139.50
2022-08-11T10:30:34.952Z,100166.94
2022-08-11T10:33:37.071Z,100194.22
2022-08-11T10:36:16.291Z,100139.31
2022-08-11T10:38:45.750Z,100139.72
2022-08-11T10:41:32.925Z,100158.34
2022-08-11T10:44:03.528Z,100169.69
2022-08-11T10:46:50.162Z,100167.25
2022-08-11T10:49:18.781Z,100160.97
2022-08-11T10:52:05.574Z,100157.06
2022-08-11T10:54:53.076Z,100167.19
2022-08-11T10:57:38.985Z,100131.38
2022-08-11T11:00:06.985Z,100146.97
2022-08-11T11:02:34.862Z,100158.78
2022-08-11T11:05:16.509Z,100138.03
2022-08-11T11:07:54.942Z,100125.78
2022-08-11T11:10:21.799Z,100108.13
2022-08-11T11:13:15.624Z,100138.41
2022-08-11T11:16:04.689Z,100118.78
2022-08-11T11:18:36.560Z,100139.41
2022-08-11T11:21:07.815Z,100139.09
2022-08-11T11:23:42.107Z,100100.34
2022-08-11T11:26:29.410Z,100115.81
2022-08-11T11:29:20.353Z,100122.13
2022-08-11T11:32:25.915Z,100117.16
2022-08-11T11:35:31.153Z,100122.19
2022-08-11T11:38:04.254Z,100100.03
2022-08-11T11:40:33.524Z,100117.66
2022-08-11T11:43:01.417Z,100070.34
2022-08-11T11:45:28.790Z,100092.41
2022-08-11T11:47:59.390Z,100101.97
2022-08-11T11:50:35.784Z,100103.69
2022-08-11T11:53:10.682Z,100105.72
2022-08-11T11:55:38.346Z,100097.56
2022-08-11T11:58:25.497Z,100100.75
2022-08-11T12:01:12.373Z,100089.63
2022-08-11T12:03:40.936Z,100055.28
2022-08-11T12:06:13.355Z,100063.97
2022-08-11T12:08:40.634Z,100071.25
2022-08-11T12:11:34.367Z,100084.44
2022-08-11T12:14:10.492Z,100064.59
2022-08-11T12:16:41.007Z,100014.84
2022-08-11T12:19:17.621Z,100013.28
2022-08-11T12:22:04.294Z,100076.00
2022-08-11T12:24:51.410Z,100074.38
2022-08-11T12:27:24.034Z,100030.59
2022-08-11T12:30:10.967Z,100023.34
2022-08-11T12:32:39.482Z,100059.81
2022-08-11T12:35:07.344Z,100063.84
2022-08-11T12:37:40.672Z,100005.44
2022-08-11T12:40:49.909Z,100030.88
2022-08-11T12:43:39.780Z,100007.47
2022-08-11T12:46:19.532Z,100041.03
2022-08-11T12:49:07.967Z,100014.59
2022-08-11T12:52:13.023Z,100038.06
2022-08-11T12:54:42.058Z,100045.81
2022-08-11T12:57:45.946Z,100038.19
2022-08-11T13:00:32.785Z,100033.53
2022-08-11T13:03:19.167Z,100014.09
2022-08-11T13:05:47.551Z,100035.28
2022-08-11T13:08:15.290Z,99986.22
2022-08-11T13:11:03.503Z,100011.03
2022-08-11T13:13:53.760Z,100020.34
2022-08-11T13:16:20.956Z,100008.75
2022-08-11T13:18:49.061Z,100012.81
2022-08-11T13:21:20.747Z,99972.94
2022-08-11T13:24:00.843Z,99950.66
2022-08-11T13:26:49.377Z,99992.94
2022-08-11T13:29:22.345Z,99990.41
2022-08-11T13:31:50.488Z,99982.69
2022-08-11T13:34:19.905Z,100012.69
2022-08-11T13:36:50.291Z,99970.00
2022-08-11T13:39:18.322Z,99990.31
2022-08-11T13:41:47.802Z,99994.03
2022-08-11T13:44:21.563Z,99992.75
2022-08-11T13:46:53.095Z,100002.88
2022-08-11T13:49:21.684Z,99951.13
2022-08-11T13:51:49.274Z,100000.41
2022-08-11T13:54:19.613Z,99982.28
2022-08-11T13:56:51.202Z,99965.41
2022-08-11T13:59:30.805Z,99950.91
2022-08-11T14:02:21.348Z,99960.50
2022-08-11T14:04:59.003Z,99953.91
2022-08-11T14:07:35.234Z,99954.06
2022-08-11T14:10:03.416Z,99937.63
2022-08-11T14:12:50.512Z,99970.56
2022-08-11T14:15:19.925Z,99970.94
2022-08-11T14:18:09.376Z,99960.91
2022-08-11T14:20:59.291Z,99963.97
2022-08-11T14:23:30.965Z,99929.75
2022-08-11T14:26:18.454Z,99921.34
2022-08-11T14:28:46.116Z,99884.69
2022-08-11T14:31:15.488Z,99956.94
2022-08-11T14:34:00.722Z,99939.28
2022-08-11T14:36:39.599Z,99908.38
2022-08-11T14:39:16.978Z,99937.34
2022-08-11T14:42:30.413Z,99942.97
2022-08-11T14:45:58.010Z,99940.09
2022-08-11T14:48:17.555Z,99893.66
2022-08-11T14:50:47.123Z,99906.66
2022-08-11T14:53:18.795Z,99922.22
2022-08-11T14:56:04.830Z,99940.34
2022-08-11T14:58:36.179Z,99908.50
2022-08-11T15:01:24.195Z,99912.47
2022-08-11T15:04:34.033Z,99917.00
2022-08-11T15:06:42.990Z,99887.56
2022-08-11T15:09:09.955Z,99894.53
2022-08-11T15:11:55.200Z,99889.31
2022-08-11T15:14:48.088Z,99903.81
2022-08-11T15:17:15.613Z,99887.34
2022-08-11T15:20:05.218Z,99905.06
2022-08-11T15:22:50.718Z,99899.56
2022-08-11T15:25:19.793Z,99831.72
2022-08-11T15:28:09.027Z,99909.59
2022-08-11T15:30:55.937Z,99868.16
2022-08-11T15:33:45.397Z,99886.06
2022-08-11T15:36:33.553Z,99904.63
2022-08-11T15:39:07.921Z,99902.34
2022-08-11T15:42:04.988Z,99886.22
2022-08-11T15:45:08.314Z,99877.03
2022-08-11T15:47:41.652Z,99829.00
2022-08-11T15:50:14.090Z,99890.56
2022-08-11T15:52:58.146Z,99884.41
2022-08-11T15:55:25.848Z,99893.66
2022-08-11T15:58:15.304Z,99853.00
2022-08-11T16:01:08.702Z,99896.41
2022-08-11T16:04:07.175Z,99889.28
2022-08-11T16:06:38.397Z,99853.34
2022-08-11T16:09:18.093Z,99889.13
2022-08-11T16:11:47.206Z,99859.94
2022-08-11T16:14:35.143Z,99875.22
2022-08-11T16:17:02.967Z,99879.63
2022-08-11T16:19:36.026Z,99851.06
2022-08-11T16:22:07.234Z,99864.94
2022-08-11T16:26:38.063Z,99863.31
2022-08-11T16:27:26.058Z,99865.03
2022-08-11T16:29:55.243Z,99841.41
2022-08-11T16:32:24.199Z,99874.25
2022-08-11T16:35:26.125Z,99834.91
2022-08-11T16:38:15.894Z,99853.38
2022-08-11T16:40:44.176Z,99860.97
2022-08-11T16:43:33.838Z,99765.34
2022-08-11T16:46:21.993Z,99833.41
2022-08-11T16:48:50.660Z,99786.38
2022-08-11T16:51:20.790Z,99828.34
2022-08-11T16:54:05.466Z,99847.91
2022-08-11T16:56:35.704Z,99848.22
2022-08-11T16:59:18.206Z,99782.59
2022-08-11T17:01:54.381Z,99859.00
2022-08-11T17:04:55.120Z,99850.91
2022-08-11T17:07:43.306Z,99857.63
2022-08-11T17:10:51.063Z,99835.03
2022-08-11T17:13:25.818Z,99847.28
2022-08-11T17:16:06.900Z,99801.41
2022-08-11T17:18:56.303Z,99840.00
2022-08-11T17:21:26.356Z,99824.69
2022-08-11T17:24:06.429Z,99834.84
2022-08-11T17:26:58.637Z,99834.91
2022-08-11T17:29:28.717Z,99830.91
2022-08-11T17:32:15.231Z,99831.47
2022-08-11T17:35:05.740Z,99806.44
2022-08-11T17:37:36.863Z,99834.31
2022-08-11T17:40:08.177Z,99816.28
2022-08-11T17:42:56.389Z,99837.75
2022-08-11T17:45:43.368Z,99776.13
2022-08-11T17:48:27.082Z,99822.06
2022-08-11T17:51:34.050Z,99801.09
2022-08-11T17:54:24.386Z,99841.78
2022-08-11T17:57:20.490Z,99808.47
2022-08-11T17:59:53.712Z,99800.69
2022-08-11T18:02:43.932Z,99768.94
2022-08-11T18:05:13.631Z,99854.00
2022-08-11T18:08:01.636Z,99810.28
2022-08-11T18:10:49.460Z,99842.81
2022-08-11T18:13:40.202Z,99833.59
2022-08-11T18:16:29.456Z,99825.59
2022-08-11T18:19:14.890Z,99769.97
2022-08-11T18:22:14.557Z,99838.59
2022-08-11T18:25:12.390Z,99878.22
2022-08-11T18:28:04.888Z,99870.41
2022-08-11T18:31:03.167Z,99875.03
2022-08-11T18:34:13.583Z,99853.38
2022-08-11T18:37:19.555Z,99861.38
2022-08-11T18:40:16.428Z,99835.47
2022-08-11T18:43:04.103Z,99887.16
2022-08-11T18:46:00.476Z,99806.50
2022-08-11T18:48:54.981Z,99886.53
2022-08-11T18:51:42.232Z,99840.81
2022-08-11T18:54:29.930Z,99900.25
2022-08-11T18:57:19.498Z,99839.44
2022-08-11T19:00:06.376Z,99893.09
2022-08-11T19:02:55.449Z,99900.84
2022-08-11T19:06:36.945Z,99886.63
2022-08-11T19:08:53.610Z,99845.09
2022-08-11T19:11:42.886Z,99906.34
2022-08-11T19:14:30.879Z,99908.09
2022-08-11T19:17:42.860Z,99880.28
2022-08-11T19:20:29.187Z,99895.25
2022-08-11T19:23:15.683Z,99886.22
2022-08-11T19:26:03.792Z,99919.53
2022-08-11T19:28:51.987Z,99903.34
2022-08-11T19:31:43.869Z,99917.16
2022-08-11T19:34:34.926Z,99864.38
2022-08-11T19:37:24.685Z,99848.16
2022-08-11T19:40:13.453Z,99898.81
2022-08-11T19:43:01.565Z,99927.53
2022-08-11T19:45:52.344Z,99882.00
2022-08-11T19:48:43.146Z,99862.72
2022-08-11T19:51:30.463Z,99890.53
2022-08-11T19:54:17.014Z,99932.53
2022-08-11T19:57:03.818Z,99933.59
2022-08-11T19:59:51.042Z,99913.50
2022-08-11T20:02:37.343Z,99941.47
2022-08-11T20:05:24.429Z,99865.53
2022-08-11T20:08:12.515Z,99916.19
2022-08-11T20:10:58.527Z,99885.28
2022-08-11T20:13:46.788Z,99947.41
2022-08-11T20:16:38.391Z,99923.28
2022-08-11T20:19:54.977Z,99864.41
2022-08-11T20:22:34.097Z,99940.84
2022-08-11T20:25:21.248Z,99938.09
2022-08-11T20:28:09.470Z,99906.09
2022-08-11T20:30:55.456Z,99903.88
2022-08-11T20:33:41.800Z,99926.06
2022-08-11T20:36:29.202Z,99860.31
2022-08-11T20:39:15.454Z,99938.44
2022-08-11T20:42:01.841Z,99931.31
2022-08-11T20:44:48.936Z,99907.91
2022-08-11T20:47:56.833Z,99914.97
2022-08-11T20:50:45.602Z,99940.13
2022-08-11T20:53:35.680Z,99960.47
2022-08-11T20:56:28.468Z,99880.91
2022-08-11T20:59:17.874Z,99955.66
2022-08-11T21:05:13.102Z,99943.84
2022-08-11T21:08:07.632Z,99924.22
2022-08-11T21:10:57.373Z,99955.06
2022-08-11T21:13:51.444Z,99924.50
2022-08-11T21:16:47.483Z,99922.28
2022-08-11T21:20:01.853Z,99942.41
2022-08-11T21:22:59.421Z,99898.31
2022-08-11T21:25:59.334Z,99942.84
2022-08-11T21:28:47.298Z,99925.97
2022-08-11T21:31:34.487Z,99865.38
2022-08-11T21:34:21.633Z,99939.34
2022-08-11T21:37:09.531Z,99907.50
2022-08-11T21:39:56.283Z,99917.34
2022-08-11T21:42:44.335Z,99858.84
2022-08-11T21:45:31.696Z,99931.06
2022-08-11T21:48:18.635Z,99952.63
2022-08-11T21:51:03.891Z,99926.09
2022-08-11T21:53:50.611Z,99845.88
2022-08-11T21:56:37.318Z,99948.81
2022-08-11T21:59:24.318Z,99907.47
2022-08-11T22:02:12.971Z,99734.97
2022-08-11T22:05:03.800Z,99929.69
2022-08-11T22:07:50.331Z,99957.16
2022-08-11T22:10:42.524Z,99931.91
2022-08-11T22:13:31.585Z,99985.75
2022-08-11T22:16:18.480Z,99927.13
2022-08-11T22:19:06.200Z,99917.53
2022-08-11T22:22:01.765Z,99951.28
2022-08-11T22:24:52.931Z,99977.97
2022-08-11T22:27:41.544Z,99964.41
2022-08-11T22:30:28.889Z,99981.53
2022-08-11T22:33:23.422Z,99943.56
2022-08-11T22:36:13.442Z,99968.88
2022-08-11T22:39:01.445Z,99931.66
2022-08-11T22:41:48.449Z,99953.03
2022-08-11T22:44:34.144Z,99980.63
2022-08-11T22:47:20.181Z,99979.31
2022-08-11T22:50:10.965Z,99951.31
2022-08-11T22:52:57.453Z,99945.25
2022-08-11T22:55:43.954Z,99906.72
2022-08-11T22:58:30.810Z,99987.19
2022-08-11T23:01:17.372Z,99969.81
2022-08-11T23:04:05.796Z,99955.78
2022-08-11T23:06:52.937Z,99952.97
2022-08-11T23:09:39.158Z,99930.44
2022-08-11T23:12:25.222Z,99978.91
2022-08-11T23:15:11.229Z,99867.16
2022-08-11T23:17:58.713Z,99936.75
2022-08-11T23:20:55.553Z,99995.47
2022-08-11T23:23:42.508Z,99984.50
2022-08-11T23:26:30.073Z,99962.91
2022-08-11T23:29:17.318Z,99920.72
2022-08-11T23:32:05.588Z,99985.31
2022-08-11T23:35:03.669Z,100016.97
2022-08-11T23:37:51.058Z,99988.84
2022-08-11T23:40:36.807Z,99937.34
2022-08-11T23:43:24.170Z,99943.19
2022-08-11T23:46:09.179Z,99961.75
2022-08-11T23:48:57.488Z,99991.75
2022-08-11T23:51:45.018Z,99901.69
2022-08-11T23:54:49.318Z,99961.97
2022-08-11T23:57:36.641Z,99994.66
